Historyczne dane pomiarowe

Dodano dane terminowe – wersja testowa.

Dane z okresu 1951-2019

Wersja bazy: 1.34 [2019-03-16, lista zmian], aktualizacja planowana na 2019-04-15

Dane meteo z obszaru Polski uzyskane na podstawie danych udostępnionych przez Instytut Meteorologii i Gospodarki Wodnej – Państwowy Instytut Badawczy.

 

Wybierz Datę:    

       

TemperaturaWilgotnośćWiatrCiśnienieOpadyŚniegCzas trwania zjawisk
 Stacja t tx tn tng RH VA  wxwx mslp ppp RRR   cm mm wxwxwxwxwxwxwx
1961-01-17 -5.3 0.2 -7.5 -9.4 84.3- 0.3 1.0---- 0.0-- 1---------
1961-01-18 -9.5 -5.5-12.2-14.0 69.3- 0.0 2.3---- 0.0-- 1---------
1961-01-19 -8.0 -2.3-13.9-15.8 61.5- 0.0 1.7---- 0.0-- 1---------
1961-01-20 -5.2 0.3-11.1-13.2 73.0- 0.0 2.0---- 0.0-- 1---------
1961-01-21 -5.8 -0.3-11.4-13.0 78.5- 3.3 1.0---- 0.0-- 1---------
1961-01-22 -3.2 -0.5-10.3-11.9 94.0- 7.7 1.3---- 4.8-- 1---------
1961-01-23 -5.8 -0.3 -8.8-10.7 84.3- 5.3 3.0---- 0.0-- 6---------
1961-01-24-14.1 -5.6-18.8-23.1 84.3- 0.3 0.0---- 0.1-- 6---------
1961-01-25-12.8 -5.9-16.7-20.3 82.0- 0.0 2.0---- 0.0-- 6---------
1961-01-26-16.0 -7.4-21.7-26.1 79.0- 0.0 1.0---- 0.0-- 5---------
1961-01-27-11.7 -3.8-23.3-24.6 71.0- 0.0 0.7---- 0.0-- 5---------
1961-01-28 -4.3 0.0-14.7-18.9 66.0- 4.7 3.3---- 0.0-- 5---------
1961-01-29 5.5 7.7 -4.1 -8.3 73.0- 4.3 7.7---- 1.7-- 5---------
1961-01-30 5.6 7.8 4.6 1.1 85.3- 6.3 8.3---- 6.0------------
1961-01-31 5.3 6.1 4.4 1.7 90.0- 8.0 4.0---- 5.1------------
1961-02-01 3.2 5.2 0.8 -1.4 81.8- 6.7 4.0---- 0.2------------
1961-02-02 2.9 5.9 0.9 0.8 75.3- 6.3 5.7---- 0.9------------
1961-02-03 1.0 2.3 0.6 -0.4 88.5- 8.0 4.0---- 0.6------------
1961-02-04 0.8 2.7 0.0 -1.9 90.3- 7.0 2.7---- 0.0------------
1961-02-05 -2.3 1.2 -3.5 -6.1 89.3- 2.7 2.3---- 0.0------------
1961-02-06 2.3 4.1 -4.3 -6.9 78.5- 8.0 5.0---- 0.2------------
1961-02-07 5.1 8.2 3.4 0.6 81.8- 3.7 6.3---- 3.3------------
1961-02-08 2.8 6.1 1.1 2.3 91.3- 4.7 6.3---- 4.2------------
1961-02-09 6.3 9.3 0.7 -1.6 93.5- 8.0 6.0---- 6.2------------
1961-02-10 3.5 7.2 2.7 2.3 91.3- 8.0 6.3---- 0.2------------
1961-02-11 6.2 6.7 3.3 2.6 87.0- 8.0 5.0---- 2.9------------
1961-02-12 4.6 6.7 3.8 3.1 93.8- 8.0 4.3---- 0.3------------
1961-02-13 4.7 7.9 1.7 -0.9 91.8- 6.7 0.7---- 0.0------------
1961-02-14 6.3 8.4 3.9 1.6 89.8- 8.0 2.0---- 0.0------------
1961-02-15 7.2 14.7 -1.2 -2.7 82.3- 2.7 2.3---- 0.0------------
174.1 ms

 

Źródłem pochodzenia danych jest Instytut Meteorologii i Gospodarki Wodnej – Państwowy Instytut Badawczy. Dane Instytutu Meteorologii i Gospodarki Wodnej – Państwowego Instytutu Badawczego zostały przetworzone.

Dane źródłowe można odnaleźć na stronie https://dane.imgw.pl